首页
METAR-TAF:

METAR-TAF

机场 :

Saginaw, 密歇根州, 美国

纬度: 43-31-58N, 经度: 084-04-46W, 海拔: 204米

当前天气观测

该预报发布于32分钟前的14:53 UTC
风速4节,风向东北
温度 16°C
湿度 82%
气压 1017 hPa
能見度: 16.1公里
阴天层高于2200英尺

METAR: KMBS 171453Z 04004KT 10SM OVC022 16/13 A3004 RMK AO2 SLP172 T01560133 50002

时间: 11:25 (15:25 UTC)

预报

该预报发布于38分钟前的14:47 UTC
预报有效从17日的 15点(UTC)到 18日的 12点(UTC)
风速5节,风向东北
能見度: 10公里
阴天层高于2500英尺
从 18日的 0200点(UTC)
风速3节,风向多变
能見度: 10公里
多云层高于4000英尺
阴天层高于25000英尺
从 18日的 0800点(UTC)
风速5节,风向北转东北
能見度: 10公里
散云层高于2500英尺
阴天层高于4000英尺

TAF: KMBS 171447Z 1715/1812 04005KT P6SM OVC025 FM180200 VRB03KT P6SM BKN040 OVC250 FM180800 03005KT P6SM SCT025 OVC040

超过4000个机场的气象观测和天气预报(METAR&TAF报告)。

可查询的气象台以黄色和红色小点在地图上表示。

将鼠标移到小点上方,可查看气象台名称。

然后点击查看天气观测和预报。

如需切换地图:点击带黑十字的绿色按钮放大地图;点击带横线的绿色按钮缩小地图;或者点击绿色箭头查看邻近地区的地图。


METAR-TAF: